createdAt,value
2019-02-26T00:00:16.928Z,135.88
2019-02-26T00:01:23.492Z,131.78
2019-02-26T00:02:28.934Z,138.43
2019-02-26T00:03:41.567Z,136.40
2019-02-26T00:04:44.687Z,134.90
2019-02-26T00:05:52.626Z,141.65
2019-02-26T00:07:00.578Z,125.27
2019-02-26T00:08:07.141Z,131.70
2019-02-26T00:09:11.467Z,133.67
2019-02-26T00:10:19.771Z,135.52
2019-02-26T00:11:26.717Z,128.80
2019-02-26T00:12:35.500Z,129.32
2019-02-26T00:13:38.670Z,127.58
2019-02-26T00:14:45.368Z,136.60
2019-02-26T00:15:52.055Z,129.95
2019-02-26T00:16:58.243Z,129.72
2019-02-26T00:18:02.632Z,124.42
2019-02-26T00:19:09.781Z,126.00
2019-02-26T00:20:17.566Z,135.15
2019-02-26T00:24:51.189Z,133.65
2019-02-26T00:26:01.097Z,128.38
2019-02-26T00:27:09.780Z,128.10
2019-02-26T00:28:19.759Z,126.45
2019-02-26T00:29:25.436Z,127.90
2019-02-26T00:30:39.819Z,130.18
2019-02-26T00:31:51.207Z,133.25
2019-02-26T00:33:00.130Z,129.23
2019-02-26T00:34:08.321Z,121.70
2019-02-26T00:35:15.826Z,124.15
2019-02-26T00:36:21.691Z,122.37
2019-02-26T00:37:31.880Z,113.88
2019-02-26T00:38:44.418Z,119.40
2019-02-26T00:39:49.769Z,120.13
2019-02-26T00:40:57.214Z,123.00
2019-02-26T00:42:05.833Z,121.77
2019-02-26T00:43:12.882Z,121.42
2019-02-26T00:44:38.248Z,112.45
2019-02-26T00:45:47.350Z,114.95
2019-02-26T00:46:57.581Z,118.65
2019-02-26T00:48:09.607Z,109.67
2019-02-26T00:49:14.113Z,110.10
2019-02-26T00:50:18.995Z,111.28
2019-02-26T00:51:28.414Z,106.30
2019-02-26T00:52:39.147Z,111.03
2019-02-26T00:53:50.827Z,111.00
2019-02-26T00:54:57.633Z,107.80
2019-02-26T00:56:03.841Z,108.03
2019-02-26T00:57:13.770Z,103.67
2019-02-26T00:58:18.153Z,107.67
2019-02-26T00:59:23.794Z,112.30
2019-02-26T01:00:33.010Z,106.45
2019-02-26T01:01:48.230Z,101.97
2019-02-26T01:02:48.101Z,101.92
2019-02-26T01:03:54.505Z,102.87
2019-02-26T01:05:00.038Z,101.58
2019-02-26T01:06:11.406Z,102.10
2019-02-26T01:07:19.122Z,103.17
2019-02-26T01:08:26.152Z,103.30
2019-02-26T01:09:37.561Z,108.15
2019-02-26T01:10:45.942Z,100.58
2019-02-26T01:11:56.539Z,96.25
2019-02-26T01:13:03.027Z,93.22
2019-02-26T01:14:07.662Z,95.67
2019-02-26T01:15:16.892Z,92.82
2019-02-26T01:16:21.322Z,88.60
2019-02-26T01:17:25.582Z,91.17
2019-02-26T01:18:33.460Z,90.80
2019-02-26T01:19:40.736Z,92.95
2019-02-26T01:20:48.316Z,89.77
2019-02-26T01:21:51.053Z,88.65
2019-02-26T01:22:57.683Z,83.67
2019-02-26T01:24:04.151Z,82.50
2019-02-26T01:25:10.210Z,82.82
2019-02-26T01:26:15.214Z,86.17
2019-02-26T01:27:19.355Z,78.42
2019-02-26T01:28:24.837Z,78.25
2019-02-26T01:29:30.001Z,76.87
2019-02-26T01:30:36.254Z,81.15
2019-02-26T01:31:40.592Z,81.85
2019-02-26T01:32:45.077Z,79.05
2019-02-26T01:33:50.903Z,71.47
2019-02-26T01:34:55.933Z,76.17
2019-02-26T01:36:02.576Z,72.60
2019-02-26T01:37:08.201Z,76.92
2019-02-26T01:38:14.384Z,79.30
2019-02-26T01:39:19.212Z,72.40
2019-02-26T01:40:25.804Z,75.72
2019-02-26T01:41:30.217Z,75.95
2019-02-26T01:42:34.447Z,73.17
2019-02-26T01:43:38.784Z,69.07
2019-02-26T01:44:46.139Z,69.53
2019-02-26T01:45:51.531Z,69.32
2019-02-26T01:46:58.281Z,73.80
2019-02-26T01:48:04.486Z,69.80
2019-02-26T01:49:19.208Z,70.90
2019-02-26T01:50:41.121Z,69.62
2019-02-26T01:51:42.710Z,66.95
2019-02-26T01:52:47.008Z,70.28
2019-02-26T01:54:02.277Z,70.72
2019-02-26T01:55:10.493Z,66.60
2019-02-26T01:56:20.042Z,64.53
2019-02-26T01:57:27.743Z,66.47
2019-02-26T01:58:33.702Z,65.72
2019-02-26T01:59:39.843Z,65.40
2019-02-26T02:00:45.815Z,66.07
2019-02-26T02:01:53.770Z,61.80
2019-02-26T02:03:00.219Z,61.33
2019-02-26T02:04:08.743Z,66.50
2019-02-26T02:05:12.325Z,67.50
2019-02-26T02:06:19.484Z,63.85
2019-02-26T02:07:25.931Z,69.20
2019-02-26T02:08:29.805Z,62.73
2019-02-26T02:09:34.255Z,64.60
2019-02-26T02:10:40.099Z,65.83
2019-02-26T02:11:44.510Z,66.77
2019-02-26T02:12:59.358Z,65.75
2019-02-26T02:14:02.073Z,65.97
2019-02-26T02:15:14.889Z,62.62
2019-02-26T02:16:21.993Z,63.68
2019-02-26T02:17:28.673Z,63.85
2019-02-26T02:18:32.959Z,64.90
2019-02-26T02:19:38.757Z,62.65
2019-02-26T02:20:50.808Z,57.83
2019-02-26T02:21:58.298Z,56.23
2019-02-26T02:23:05.357Z,62.83
2019-02-26T02:24:10.743Z,62.33
2019-02-26T02:25:13.285Z,65.20
2019-02-26T02:26:17.875Z,62.23
2019-02-26T02:27:31.038Z,63.17
2019-02-26T02:28:39.643Z,62.40
2019-02-26T02:29:46.154Z,65.25
2019-02-26T02:30:52.391Z,62.23
2019-02-26T02:31:59.511Z,61.40
2019-02-26T02:33:04.195Z,64.07
2019-02-26T02:34:08.638Z,54.80
2019-02-26T02:35:17.868Z,56.70
2019-02-26T02:36:22.930Z,58.38
2019-02-26T02:37:27.474Z,53.58
2019-02-26T02:38:36.509Z,58.35
2019-02-26T02:39:38.383Z,59.65
2019-02-26T02:40:51.870Z,57.45
2019-02-26T02:41:52.530Z,57.35
2019-02-26T02:43:09.771Z,55.35
2019-02-26T02:44:15.421Z,56.10
2019-02-26T02:45:21.093Z,60.78
2019-02-26T02:46:25.776Z,53.73
2019-02-26T02:47:33.209Z,57.13
2019-02-26T02:48:37.274Z,55.90
2019-02-26T02:49:44.366Z,56.98
2019-02-26T02:50:48.704Z,56.77
2019-02-26T02:51:53.185Z,56.63
2019-02-26T02:52:59.624Z,56.45
2019-02-26T02:54:05.099Z,48.80
2019-02-26T02:55:12.985Z,52.75
2019-02-26T02:56:17.945Z,54.27
2019-02-26T02:57:24.188Z,54.38
2019-02-26T02:58:29.281Z,50.60
2019-02-26T02:59:37.234Z,54.20
2019-02-26T03:00:45.989Z,53.92
2019-02-26T03:01:54.782Z,52.80
2019-02-26T03:02:58.294Z,55.17
2019-02-26T03:04:03.903Z,51.45
2019-02-26T03:05:10.175Z,50.83
2019-02-26T03:06:16.112Z,50.90
2019-02-26T03:07:23.551Z,53.45
2019-02-26T03:08:29.123Z,50.90
2019-02-26T03:09:37.161Z,51.10
2019-02-26T03:10:43.161Z,51.80
2019-02-26T03:11:49.580Z,52.53
2019-02-26T03:12:57.627Z,50.85
2019-02-26T03:14:05.675Z,51.18
2019-02-26T03:15:11.767Z,51.30
2019-02-26T03:16:18.320Z,49.98
2019-02-26T03:17:21.880Z,54.33
2019-02-26T03:18:26.061Z,45.83
2019-02-26T03:19:32.474Z,48.70
2019-02-26T03:20:39.939Z,50.23
2019-02-26T03:21:44.634Z,49.58
2019-02-26T03:22:49.197Z,46.60
2019-02-26T03:23:53.589Z,47.65
2019-02-26T03:24:59.663Z,51.20
2019-02-26T03:26:04.050Z,49.20
2019-02-26T03:27:09.523Z,54.38
2019-02-26T03:28:13.839Z,48.10
2019-02-26T03:29:18.326Z,50.12
2019-02-26T03:30:31.716Z,45.88
2019-02-26T03:31:35.238Z,49.75
2019-02-26T03:32:40.301Z,49.10
2019-02-26T03:33:41.813Z,49.13
2019-02-26T03:34:46.405Z,45.40
2019-02-26T03:35:50.760Z,40.70
2019-02-26T03:36:57.260Z,48.20
2019-02-26T03:38:05.037Z,47.43
2019-02-26T03:39:09.813Z,45.00
2019-02-26T03:40:15.921Z,44.48
2019-02-26T03:41:25.704Z,43.95
2019-02-26T03:42:27.930Z,44.33
2019-02-26T03:43:34.215Z,43.98
2019-02-26T03:44:46.934Z,45.50
2019-02-26T03:45:51.477Z,42.80
2019-02-26T03:47:03.117Z,45.38
2019-02-26T03:48:07.611Z,43.63
2019-02-26T03:49:12.523Z,45.58
2019-02-26T03:50:18.867Z,45.88
2019-02-26T03:51:25.627Z,42.53
2019-02-26T03:52:32.121Z,45.52
2019-02-26T03:53:37.037Z,46.08
2019-02-26T03:54:47.396Z,47.35
2019-02-26T03:55:52.694Z,44.33
2019-02-26T03:56:57.303Z,44.58
2019-02-26T03:58:04.790Z,41.00
2019-02-26T03:59:12.102Z,45.58
2019-02-26T04:00:20.319Z,45.73
2019-02-26T04:01:26.111Z,45.00
2019-02-26T04:02:37.449Z,44.15
2019-02-26T04:03:37.607Z,44.27
2019-02-26T04:04:45.849Z,43.68
2019-02-26T04:05:52.821Z,44.48
2019-02-26T04:06:58.569Z,45.88
2019-02-26T04:08:04.829Z,42.58
2019-02-26T04:09:10.891Z,44.05
2019-02-26T04:10:15.255Z,40.50
2019-02-26T04:11:22.832Z,49.00
2019-02-26T04:12:28.102Z,45.03
2019-02-26T04:13:32.430Z,45.20
2019-02-26T04:14:36.532Z,47.15
2019-02-26T04:15:42.355Z,41.40
2019-02-26T04:16:46.727Z,41.92
2019-02-26T04:17:53.734Z,43.73
2019-02-26T04:18:58.227Z,40.45
2019-02-26T04:20:05.599Z,43.13
2019-02-26T04:21:12.080Z,42.08
2019-02-26T04:22:27.513Z,46.70
2019-02-26T04:23:35.898Z,44.63
2019-02-26T04:24:43.239Z,45.92
2019-02-26T04:26:10.674Z,41.10
2019-02-26T04:27:51.399Z,41.10
2019-02-26T04:29:07.672Z,45.48
2019-02-26T04:30:49.646Z,43.80
2019-02-26T04:32:24.617Z,42.53
2019-02-26T04:33:53.192Z,45.20
2019-02-26T04:34:57.624Z,39.50
2019-02-26T04:36:24.812Z,39.38
2019-02-26T04:37:45.272Z,43.52
2019-02-26T04:40:21.037Z,41.85
2019-02-26T04:41:25.624Z,43.10
2019-02-26T04:42:50.300Z,45.33
2019-02-26T04:44:01.369Z,40.33
2019-02-26T04:45:09.620Z,43.85
2019-02-26T04:46:20.413Z,48.25
2019-02-26T04:47:30.794Z,46.08
2019-02-26T04:48:37.580Z,41.13
2019-02-26T04:49:43.061Z,42.67
2019-02-26T04:50:49.129Z,44.00
2019-02-26T04:51:57.553Z,40.48
2019-02-26T04:53:04.952Z,41.92
2019-02-26T04:54:10.599Z,41.83
2019-02-26T04:55:15.989Z,43.20
2019-02-26T04:56:20.985Z,42.95
2019-02-26T04:57:25.485Z,39.05
2019-02-26T04:58:34.279Z,41.85
2019-02-26T04:59:41.189Z,40.35
2019-02-26T05:00:53.289Z,40.20
2019-02-26T05:01:59.237Z,40.38
2019-02-26T05:03:05.228Z,44.05
2019-02-26T05:04:12.078Z,45.17
2019-02-26T05:05:21.906Z,45.00
2019-02-26T05:06:25.692Z,40.40
2019-02-26T05:07:32.842Z,45.23
2019-02-26T05:08:40.315Z,39.95
2019-02-26T05:09:47.415Z,38.78
2019-02-26T05:10:57.475Z,45.45
2019-02-26T05:12:01.354Z,39.55
2019-02-26T05:13:09.564Z,41.77
2019-02-26T05:14:15.408Z,39.08
2019-02-26T05:15:23.292Z,39.33
2019-02-26T05:16:29.510Z,40.67
2019-02-26T05:17:35.762Z,41.98
2019-02-26T05:18:40.178Z,40.45
2019-02-26T05:19:48.810Z,39.90
2019-02-26T05:20:53.300Z,39.13
2019-02-26T05:22:01.610Z,39.13
2019-02-26T05:23:07.021Z,39.63
2019-02-26T05:24:14.942Z,41.95
2019-02-26T05:25:19.784Z,41.73
2019-02-26T05:26:27.111Z,38.73
2019-02-26T05:27:39.158Z,39.88
2019-02-26T05:28:40.846Z,38.00
2019-02-26T05:29:48.816Z,42.70
2019-02-26T05:30:56.465Z,37.88
2019-02-26T05:32:03.998Z,41.40
2019-02-26T05:33:12.738Z,37.90
2019-02-26T05:34:20.741Z,44.48
2019-02-26T05:35:37.786Z,39.88
2019-02-26T05:36:46.185Z,37.67
2019-02-26T05:37:58.310Z,35.52
2019-02-26T05:39:06.164Z,37.90
2019-02-26T05:40:15.565Z,40.45
2019-02-26T05:41:23.469Z,38.23
2019-02-26T05:42:27.880Z,42.90
2019-02-26T05:43:36.344Z,42.78
2019-02-26T05:44:53.811Z,40.52
2019-02-26T05:46:03.847Z,41.33
2019-02-26T05:47:08.322Z,41.02
2019-02-26T05:48:18.097Z,38.53
2019-02-26T05:49:22.672Z,42.05
2019-02-26T05:50:32.052Z,41.33
2019-02-26T05:51:39.098Z,40.70
2019-02-26T05:52:49.815Z,39.65
2019-02-26T05:53:51.400Z,41.35
2019-02-26T05:54:57.555Z,40.43
2019-02-26T05:56:11.636Z,44.40
2019-02-26T05:57:27.659Z,41.35
2019-02-26T05:58:33.640Z,38.13
2019-02-26T05:59:38.440Z,42.13
2019-02-26T06:00:43.719Z,42.53
2019-02-26T06:01:53.315Z,39.10
2019-02-26T06:03:03.568Z,39.67
2019-02-26T06:04:12.350Z,36.68
2019-02-26T06:05:20.443Z,42.30
2019-02-26T06:06:28.115Z,38.55
2019-02-26T06:07:36.041Z,40.05
2019-02-26T06:08:41.318Z,37.78
2019-02-26T06:09:53.682Z,37.65
2019-02-26T06:11:01.739Z,42.95
2019-02-26T06:12:10.565Z,36.90
2019-02-26T06:13:15.762Z,38.55
2019-02-26T06:14:24.665Z,40.83
2019-02-26T06:15:35.474Z,38.25
2019-02-26T06:16:40.078Z,36.48
2019-02-26T06:17:45.856Z,38.63
2019-02-26T06:18:56.497Z,38.25
2019-02-26T06:21:18.979Z,33.78
2019-02-26T06:22:26.064Z,34.18
2019-02-26T06:23:31.695Z,37.40
2019-02-26T06:24:43.726Z,37.35
2019-02-26T06:25:46.237Z,36.95
2019-02-26T06:26:51.834Z,37.23
2019-02-26T06:28:02.324Z,32.65
2019-02-26T06:29:05.195Z,39.00
2019-02-26T06:30:12.569Z,37.23
2019-02-26T06:31:19.410Z,38.15
2019-02-26T06:32:30.012Z,31.70
2019-02-26T06:33:34.153Z,35.90
2019-02-26T06:34:36.967Z,36.55
2019-02-26T06:35:42.891Z,33.90
2019-02-26T06:36:51.582Z,34.38
2019-02-26T06:37:55.698Z,35.70
2019-02-26T06:39:01.548Z,35.70
2019-02-26T06:40:08.864Z,31.65
2019-02-26T06:41:13.431Z,39.30
2019-02-26T06:42:17.723Z,37.40
2019-02-26T06:43:22.058Z,32.08
2019-02-26T06:44:26.354Z,35.43
2019-02-26T06:45:30.790Z,33.85
2019-02-26T06:46:35.969Z,34.30
2019-02-26T06:47:42.888Z,39.60
2019-02-26T06:48:50.836Z,31.30
2019-02-26T06:49:55.152Z,34.35
2019-02-26T06:51:02.697Z,33.58
2019-02-26T06:52:10.616Z,33.60
2019-02-26T06:53:18.723Z,34.45
2019-02-26T06:54:25.070Z,30.77
2019-02-26T06:55:32.878Z,31.75
2019-02-26T06:56:43.313Z,33.55
2019-02-26T06:57:47.190Z,35.48
2019-02-26T06:58:50.562Z,36.85
2019-02-26T06:59:58.504Z,34.40
2019-02-26T07:01:07.650Z,37.40
2019-02-26T07:02:12.132Z,34.23
2019-02-26T07:03:16.599Z,31.95
2019-02-26T07:05:16.467Z,33.00
2019-02-26T07:06:22.938Z,35.83
2019-02-26T07:07:26.674Z,33.48
2019-02-26T07:08:32.582Z,33.02
2019-02-26T07:09:38.673Z,35.30
2019-02-26T07:10:43.020Z,32.63
2019-02-26T07:11:49.432Z,32.60
2019-02-26T07:12:55.862Z,30.97
2019-02-26T07:14:01.299Z,35.90
2019-02-26T07:15:12.176Z,34.65
2019-02-26T07:16:21.241Z,37.65
2019-02-26T07:17:31.563Z,35.68
2019-02-26T07:18:40.510Z,31.35
2019-02-26T07:19:46.671Z,31.27
2019-02-26T07:20:57.632Z,32.00
2019-02-26T07:21:58.856Z,34.63
2019-02-26T07:23:08.264Z,31.70
2019-02-26T07:24:11.654Z,30.20
2019-02-26T07:26:46.356Z,31.97
2019-02-26T07:27:54.197Z,35.52
2019-02-26T07:33:34.587Z,26.10
2019-02-26T07:34:37.498Z,28.45
2019-02-26T07:35:55.154Z,32.42
2019-02-26T07:37:15.690Z,30.37
2019-02-26T07:38:15.672Z,32.30
2019-02-26T07:39:25.542Z,29.55
2019-02-26T07:43:22.563Z,32.50
2019-02-26T07:44:28.480Z,34.15
2019-02-26T07:45:38.494Z,28.70
2019-02-26T07:46:49.824Z,25.10
2019-02-26T07:48:05.871Z,28.50
2019-02-26T07:51:04.734Z,33.92
2019-02-26T07:51:59.782Z,26.25
2019-02-26T07:53:22.179Z,26.90
2019-02-26T07:54:28.920Z,28.57
2019-02-26T07:55:43.141Z,28.70
2019-02-26T07:58:27.433Z,28.40
2019-02-26T07:59:36.948Z,27.87
2019-02-26T08:02:22.729Z,28.92
2019-02-26T08:03:46.416Z,25.50
2019-02-26T08:05:06.217Z,29.20
2019-02-26T08:06:09.221Z,28.25
2019-02-26T08:07:21.490Z,22.90
2019-02-26T08:08:42.014Z,27.22
2019-02-26T08:11:06.592Z,26.10
2019-02-26T08:14:25.149Z,29.57
2019-02-26T08:15:10.496Z,27.67
2019-02-26T08:16:18.367Z,27.45
2019-02-26T08:17:24.068Z,23.77
2019-02-26T08:18:28.473Z,27.60
2019-02-26T08:19:36.717Z,26.23
2019-02-26T08:20:52.336Z,27.48
2019-02-26T08:21:54.933Z,26.90
2019-02-26T08:23:01.823Z,26.25
2019-02-26T08:24:13.145Z,30.95
2019-02-26T08:25:23.127Z,24.47
2019-02-26T08:26:33.546Z,23.65
2019-02-26T08:27:39.212Z,27.25
2019-02-26T08:28:44.082Z,25.45
2019-02-26T08:29:54.046Z,24.92
2019-02-26T08:30:57.415Z,25.77
2019-02-26T08:32:02.032Z,23.87
2019-02-26T08:33:08.568Z,23.02
2019-02-26T08:34:18.241Z,26.85
2019-02-26T08:35:24.286Z,30.20
2019-02-26T08:36:28.946Z,25.08
2019-02-26T08:37:49.680Z,22.37
2019-02-26T08:39:14.801Z,29.07
2019-02-26T08:40:10.536Z,30.23
2019-02-26T08:41:21.428Z,25.82
2019-02-26T08:42:33.110Z,26.45
2019-02-26T08:43:42.159Z,24.45
2019-02-26T08:44:48.746Z,24.07
2019-02-26T08:45:57.152Z,23.40
2019-02-26T08:47:08.687Z,28.15
2019-02-26T08:48:16.894Z,26.87
2019-02-26T08:49:32.366Z,25.82
2019-02-26T08:50:33.040Z,22.80
2019-02-26T08:51:42.647Z,26.65
2019-02-26T08:53:04.546Z,27.40
2019-02-26T08:53:57.231Z,24.45
2019-02-26T08:55:10.738Z,26.25
2019-02-26T08:56:23.601Z,26.55
2019-02-26T08:57:27.330Z,26.70
2019-02-26T08:58:42.541Z,29.20
2019-02-26T08:59:45.455Z,21.23
2019-02-26T09:00:52.223Z,22.75
2019-02-26T09:02:05.879Z,27.07
2019-02-26T09:03:17.979Z,25.70
2019-02-26T09:04:25.030Z,24.18
2019-02-26T09:05:36.355Z,24.07
2019-02-26T09:06:43.280Z,25.88
2019-02-26T09:07:50.428Z,28.23
2019-02-26T09:09:00.221Z,26.60
2019-02-26T09:10:12.490Z,22.02
2019-02-26T09:11:33.838Z,26.48
2019-02-26T09:12:31.001Z,21.93
2019-02-26T09:13:41.176Z,26.10
2019-02-26T09:14:51.741Z,21.52
2019-02-26T09:16:05.679Z,24.52
2019-02-26T09:17:07.574Z,18.50
2019-02-26T09:18:16.039Z,21.20
2019-02-26T09:19:24.815Z,26.00
2019-02-26T09:20:27.077Z,22.15
2019-02-26T09:21:42.525Z,20.95
2019-02-26T09:22:52.919Z,27.17
2019-02-26T09:23:57.059Z,25.30
2019-02-26T09:25:03.783Z,23.02
2019-02-26T09:26:08.526Z,23.90
2019-02-26T09:27:15.181Z,22.70
2019-02-26T09:28:24.857Z,23.57
2019-02-26T09:29:31.456Z,23.35
2019-02-26T09:30:38.847Z,25.77
2019-02-26T09:31:48.405Z,22.15
2019-02-26T09:32:58.433Z,19.07
2019-02-26T09:34:05.553Z,21.50
2019-02-26T09:35:12.468Z,18.95
2019-02-26T09:36:21.013Z,26.87
2019-02-26T09:37:28.742Z,21.02
2019-02-26T09:38:46.666Z,17.37
2019-02-26T09:39:54.329Z,20.02
2019-02-26T09:41:09.383Z,21.68
2019-02-26T09:42:15.355Z,21.15
2019-02-26T09:43:26.522Z,17.23
2019-02-26T09:44:37.711Z,18.12
2019-02-26T09:45:45.738Z,17.77
2019-02-26T09:47:07.546Z,22.00
2019-02-26T09:48:25.417Z,21.65
2019-02-26T09:49:26.265Z,21.23
2019-02-26T09:50:41.556Z,19.50
2019-02-26T09:51:49.949Z,19.20
2019-02-26T09:52:58.224Z,22.52
2019-02-26T09:54:15.976Z,18.73
2019-02-26T09:55:25.307Z,18.35
2019-02-26T09:56:33.788Z,19.77
2019-02-26T09:57:40.351Z,23.65
2019-02-26T09:58:52.351Z,20.52
2019-02-26T10:00:11.704Z,22.13
2019-02-26T10:01:19.253Z,22.65
2019-02-26T10:02:31.270Z,20.85
2019-02-26T10:03:41.467Z,22.35
2019-02-26T10:04:51.969Z,18.92
2019-02-26T10:06:05.394Z,22.90
2019-02-26T10:07:12.521Z,19.12
2019-02-26T10:08:43.764Z,20.17
2019-02-26T10:13:51.085Z,18.35
2019-02-26T10:15:05.235Z,22.73
2019-02-26T10:16:10.542Z,18.02
2019-02-26T10:17:21.437Z,18.07
2019-02-26T10:18:25.657Z,20.52
2019-02-26T10:19:35.709Z,18.12
2019-02-26T10:21:08.539Z,16.37
2019-02-26T10:21:52.399Z,19.07
2019-02-26T10:23:28.260Z,21.55
2019-02-26T10:24:38.001Z,20.80
2019-02-26T10:25:56.783Z,23.35
2019-02-26T10:27:03.055Z,17.17
2019-02-26T10:28:21.022Z,19.30
2019-02-26T10:29:27.906Z,20.65
2019-02-26T10:30:38.990Z,15.55
2019-02-26T10:31:45.091Z,19.00
2019-02-26T10:33:08.033Z,19.10
2019-02-26T10:34:34.420Z,18.20
2019-02-26T10:38:46.515Z,15.48
2019-02-26T10:40:02.231Z,19.65
2019-02-26T10:41:17.713Z,19.42
2019-02-26T10:42:46.110Z,17.40
2019-02-26T10:43:59.057Z,18.62
2019-02-26T10:45:07.679Z,18.00
2019-02-26T10:47:00.679Z,17.75
2019-02-26T10:49:56.407Z,17.15
2019-02-26T10:50:53.919Z,19.52
2019-02-26T10:52:29.967Z,17.87
2019-02-26T10:53:41.179Z,17.65
2019-02-26T10:55:00.401Z,17.98
2019-02-26T10:57:52.468Z,23.05
2019-02-26T10:59:05.419Z,16.25
2019-02-26T11:01:37.455Z,18.32
2019-02-26T11:02:50.896Z,18.95
2019-02-26T11:05:14.211Z,16.62
2019-02-26T11:06:19.183Z,17.25
2019-02-26T11:13:43.576Z,13.83
2019-02-26T11:18:23.514Z,16.23
2019-02-26T11:19:38.824Z,16.00
2019-02-26T11:21:01.183Z,21.37
2019-02-26T11:22:08.379Z,15.13
2019-02-26T11:23:17.899Z,14.00
2019-02-26T11:24:36.211Z,13.05
2019-02-26T11:25:41.472Z,17.17
2019-02-26T11:26:47.269Z,19.42
2019-02-26T11:28:02.394Z,15.48
2019-02-26T11:29:04.870Z,15.10
2019-02-26T11:32:07.860Z,13.38
2019-02-26T11:33:56.407Z,13.55
2019-02-26T11:34:47.021Z,13.75
2019-02-26T11:35:55.126Z,16.07
2019-02-26T11:37:08.781Z,9.38
2019-02-26T11:38:35.239Z,13.38
2019-02-26T11:39:36.575Z,13.83
2019-02-26T11:40:47.198Z,12.30
2019-02-26T11:41:59.375Z,14.28
2019-02-26T11:43:14.511Z,14.30
2019-02-26T11:44:45.891Z,10.55
2019-02-26T11:45:53.286Z,11.60
2019-02-26T11:47:11.221Z,13.38
2019-02-26T11:48:17.834Z,16.00
2019-02-26T11:49:25.778Z,11.15
2019-02-26T11:50:33.417Z,12.43
2019-02-26T11:51:41.818Z,16.00
2019-02-26T11:52:51.630Z,12.05
2019-02-26T11:54:00.069Z,13.10
2019-02-26T11:55:11.217Z,15.93
2019-02-26T11:56:20.868Z,14.18
2019-02-26T11:57:30.214Z,12.75
2019-02-26T11:59:54.075Z,12.85
2019-02-26T12:01:50.892Z,12.58
2019-02-26T12:02:14.873Z,15.53
2019-02-26T12:05:07.966Z,14.80
2019-02-26T12:06:18.993Z,15.60
2019-02-26T12:09:46.991Z,14.03
2019-02-26T12:12:08.749Z,14.58
2019-02-26T12:15:02.017Z,9.88
2019-02-26T12:16:20.605Z,11.55
2019-02-26T12:19:12.421Z,14.47
2019-02-26T12:22:20.335Z,12.18
2019-02-26T12:23:24.090Z,14.10
2019-02-26T12:24:37.219Z,16.37
2019-02-26T12:32:29.613Z,13.72
2019-02-26T12:38:53.528Z,13.53
2019-02-26T12:48:37.828Z,12.05
2019-02-26T12:48:55.724Z,13.27
2019-02-26T12:49:49.905Z,11.28
2019-02-26T12:51:04.836Z,12.33
2019-02-26T12:52:09.895Z,11.80
2019-02-26T12:54:24.167Z,11.70
2019-02-26T12:55:38.314Z,13.15
2019-02-26T12:56:43.958Z,13.00
2019-02-26T12:57:59.334Z,14.83
2019-02-26T12:58:59.381Z,12.43
2019-02-26T13:00:07.324Z,11.88
2019-02-26T13:01:17.552Z,14.47
2019-02-26T13:02:30.178Z,15.95
2019-02-26T13:03:53.893Z,14.13
2019-02-26T13:05:06.572Z,15.63
2019-02-26T13:06:18.653Z,11.50
2019-02-26T13:07:31.923Z,13.08
2019-02-26T13:08:42.583Z,14.10
2019-02-26T13:10:03.609Z,15.68
2019-02-26T13:11:24.901Z,14.38
2019-02-26T13:12:32.378Z,11.80
2019-02-26T13:13:48.781Z,11.33
2019-02-26T13:17:52.386Z,10.63
2019-02-26T13:19:04.500Z,13.65
2019-02-26T13:24:31.581Z,12.68
2019-02-26T13:25:32.357Z,10.13
2019-02-26T13:28:32.283Z,13.18
2019-02-26T13:29:53.112Z,13.48
2019-02-26T13:30:46.363Z,11.20
2019-02-26T13:32:02.120Z,9.38
2019-02-26T13:33:22.202Z,13.93
2019-02-26T13:34:32.991Z,15.70
2019-02-26T13:35:46.778Z,11.53
2019-02-26T13:36:57.151Z,10.38
2019-02-26T13:38:08.172Z,14.13
2019-02-26T13:39:38.387Z,10.48
2019-02-26T13:41:39.149Z,16.40
2019-02-26T13:44:01.350Z,9.03
2019-02-26T13:52:09.289Z,12.65
2019-02-26T13:53:16.420Z,20.82
2019-02-26T13:54:27.383Z,10.60
2019-02-26T13:55:37.449Z,11.22
2019-02-26T13:56:47.816Z,17.60
2019-02-26T13:58:04.777Z,11.53
2019-02-26T13:59:08.738Z,11.15
2019-02-26T14:00:26.228Z,14.15
2019-02-26T14:01:30.814Z,16.45
2019-02-26T14:05:38.223Z,14.43
2019-02-26T14:10:06.134Z,9.05
2019-02-26T14:11:21.298Z,11.78
2019-02-26T14:12:45.168Z,14.63
2019-02-26T14:13:55.932Z,12.33
2019-02-26T14:15:05.801Z,10.40
2019-02-26T14:16:32.427Z,15.72
2019-02-26T14:20:13.312Z,11.93
2019-02-26T14:21:19.694Z,10.88
2019-02-26T14:27:57.140Z,15.95
2019-02-26T14:29:07.712Z,11.93
2019-02-26T14:30:15.973Z,15.48
2019-02-26T14:36:58.938Z,8.90
2019-02-26T14:38:10.943Z,14.45
2019-02-26T14:39:17.179Z,11.48
2019-02-26T14:40:27.956Z,12.73
2019-02-26T14:41:35.380Z,11.73
2019-02-26T14:42:47.911Z,18.65
2019-02-26T14:43:56.374Z,12.05
2019-02-26T14:45:08.892Z,15.10
2019-02-26T14:46:42.990Z,12.85
2019-02-26T14:51:01.795Z,12.30
2019-02-26T14:52:25.588Z,12.07
2019-02-26T14:53:40.635Z,14.35
2019-02-26T14:56:42.441Z,14.47
2019-02-26T14:58:11.177Z,12.63
2019-02-26T14:59:24.317Z,12.55
2019-02-26T15:00:57.032Z,21.37
2019-02-26T15:02:02.645Z,13.60
2019-02-26T15:03:08.751Z,11.03
2019-02-26T15:04:23.736Z,12.30
2019-02-26T15:07:23.203Z,9.28
2019-02-26T15:09:56.724Z,11.55
2019-02-26T15:13:47.020Z,12.47
2019-02-26T15:16:51.122Z,15.18
2019-02-26T15:17:13.870Z,15.30
2019-02-26T15:18:21.941Z,16.55
2019-02-26T15:19:33.444Z,11.90
2019-02-26T15:20:45.642Z,16.35
2019-02-26T15:21:57.185Z,12.30
2019-02-26T15:23:12.871Z,12.30
2019-02-26T15:24:24.933Z,14.65
2019-02-26T15:25:53.253Z,12.20
2019-02-26T15:27:06.943Z,17.07
2019-02-26T15:34:12.830Z,16.48
2019-02-26T15:35:20.123Z,16.25
2019-02-26T15:36:41.040Z,16.55
2019-02-26T15:38:11.132Z,12.47
2019-02-26T15:39:17.461Z,15.03
2019-02-26T15:59:04.661Z,13.40
2019-02-26T16:01:55.289Z,15.85
2019-02-26T16:09:18.390Z,16.87
2019-02-26T16:21:58.748Z,20.72
2019-02-26T16:24:35.453Z,19.37
2019-02-26T16:25:49.977Z,13.90
2019-02-26T16:29:46.603Z,13.85
2019-02-26T16:31:01.736Z,14.33
2019-02-26T16:33:38.469Z,16.77
2019-02-26T16:35:02.820Z,18.65
2019-02-26T16:38:34.068Z,20.37
2019-02-26T16:39:41.547Z,16.12
2019-02-26T16:40:48.511Z,20.12
2019-02-26T16:41:57.443Z,19.57
2019-02-26T16:43:07.501Z,20.88
2019-02-26T16:44:19.392Z,20.80
2019-02-26T16:50:36.193Z,21.05
2019-02-26T16:51:48.580Z,19.70
2019-02-26T16:53:05.702Z,17.17
2019-02-26T16:54:13.712Z,22.73
2019-02-26T16:55:23.935Z,18.75
2019-02-26T16:56:34.986Z,21.85
2019-02-26T16:57:42.691Z,18.45
2019-02-26T16:58:56.561Z,26.40
2019-02-26T17:00:12.840Z,17.30
2019-02-26T17:01:27.247Z,20.90
2019-02-26T17:02:37.495Z,21.07
2019-02-26T17:03:51.963Z,19.95
2019-02-26T17:05:16.826Z,18.75
2019-02-26T17:06:22.994Z,21.87
2019-02-26T17:07:33.754Z,20.27
2019-02-26T17:08:39.377Z,17.17
2019-02-26T17:09:46.868Z,18.82
2019-02-26T17:10:57.885Z,17.70
2019-02-26T17:12:06.639Z,16.73
2019-02-26T17:14:35.754Z,20.72
2019-02-26T17:16:01.499Z,18.95
2019-02-26T17:17:03.934Z,20.20
2019-02-26T17:18:16.171Z,20.40
2019-02-26T17:19:24.848Z,20.10
2019-02-26T17:20:36.512Z,20.23
2019-02-26T17:21:43.875Z,22.27
2019-02-26T17:23:07.262Z,24.50
2019-02-26T17:24:23.425Z,24.67
2019-02-26T17:25:36.538Z,19.73
2019-02-26T17:27:06.459Z,23.67
2019-02-26T17:31:30.713Z,20.10
2019-02-26T17:35:53.297Z,18.40
2019-02-26T17:38:56.117Z,19.77
2019-02-26T17:40:13.698Z,23.92
2019-02-26T17:49:26.671Z,16.93
2019-02-26T17:50:57.866Z,20.25
2019-02-26T17:51:56.585Z,22.87
2019-02-26T17:53:08.761Z,21.17
2019-02-26T17:54:29.707Z,18.77
2019-02-26T17:56:02.435Z,18.17
2019-02-26T17:57:14.230Z,20.12
2019-02-26T17:58:24.227Z,15.48
2019-02-26T18:02:13.571Z,18.23
2019-02-26T18:03:46.035Z,19.62
2019-02-26T18:04:58.510Z,20.12
2019-02-26T18:06:13.025Z,20.02
2019-02-26T18:07:30.616Z,20.65
2019-02-26T18:08:43.269Z,19.77
2019-02-26T18:09:55.991Z,24.30
2019-02-26T18:11:23.607Z,23.25
2019-02-26T18:12:42.772Z,22.30
2019-02-26T18:16:00.248Z,24.02
2019-02-26T18:17:22.069Z,27.33
2019-02-26T18:18:34.504Z,27.62
2019-02-26T18:21:32.288Z,26.82
2019-02-26T18:23:03.696Z,22.37
2019-02-26T18:25:37.451Z,20.12
2019-02-26T18:27:04.841Z,23.38
2019-02-26T18:32:59.374Z,21.85